Time;durP1;ratioP1;P1;durP2;ratioP2;P2;SDS_P1;SDS_P2;PMS_P1;PMS_P2;Temp;Humidity;BMP_temperature;BMP_pressure;BME280_temperature;BME280_humidity;BME280_pressure;Samples;Min_cycle;Max_cycle;Signal;HPM_P1;HPM_P2
2022/07/07 00:01:49;;;;;;;7.30;1.67;;;19.70;99.90;;;;;;5025286;28;38747;-78
2022/07/07 00:04:15;;;;;;;7.13;1.30;;;19.70;99.90;;;;;;5006307;28;37812;-79
2022/07/07 00:06:42;;;;;;;3.78;1.45;;;19.70;99.90;;;;;;5015920;28;38118;-78
2022/07/07 00:09:08;;;;;;;3.55;1.65;;;19.70;99.90;;;;;;5017072;28;38323;-78
2022/07/07 00:11:35;;;;;;;3.40;1.55;;;19.70;99.90;;;;;;5016174;28;37842;-78
2022/07/07 00:14:01;;;;;;;3.40;1.38;;;19.70;99.90;;;;;;5047631;28;41285;-78
2022/07/07 00:16:28;;;;;;;4.80;1.73;;;19.80;99.90;;;;;;5011700;28;47182;-79
2022/07/07 00:18:55;;;;;;;9.60;1.67;;;19.80;99.90;;;;;;5007308;28;39799;-78
2022/07/07 00:21:21;;;;;;;4.97;1.38;;;19.80;99.90;;;;;;5014521;28;38784;-78
2022/07/07 00:23:47;;;;;;;3.42;1.40;;;19.80;99.90;;;;;;5015702;28;39137;-78
2022/07/07 00:26:13;;;;;;;4.40;1.23;;;19.70;99.90;;;;;;5014982;28;37429;-77
2022/07/07 00:28:39;;;;;;;5.40;1.48;;;19.80;99.90;;;;;;5014801;28;39537;-78
2022/07/07 00:31:05;;;;;;;3.35;1.80;;;19.70;99.90;;;;;;5014001;28;40307;-78
2022/07/07 00:33:32;;;;;;;3.67;1.65;;;19.70;99.90;;;;;;5020616;28;38013;-77
2022/07/07 00:35:58;;;;;;;2.97;1.17;;;19.70;99.90;;;;;;5013846;28;38007;-77
2022/07/07 00:38:24;;;;;;;3.17;1.50;;;19.70;99.90;;;;;;5009520;28;38650;-78
2022/07/07 00:40:51;;;;;;;4.30;1.27;;;19.70;99.90;;;;;;5017056;28;39353;-78
2022/07/07 00:43:17;;;;;;;3.80;1.48;;;19.70;99.90;;;;;;5017391;28;38568;-77
2022/07/07 00:45:51;;;;;;;2.15;1.40;;;19.70;99.90;;;;;;5018660;28;37784;-77
2022/07/07 00:48:20;;;;;;;2.83;1.42;;;19.70;99.90;;;;;;5043357;28;40803;-78
2022/07/07 00:50:47;;;;;;;3.58;1.40;;;19.70;99.90;;;;;;5016022;28;38751;-77
2022/07/07 00:53:17;;;;;;;2.03;1.23;;;19.70;99.90;;;;;;5026006;28;38699;-78
2022/07/07 00:55:44;;;;;;;3.42;1.70;;;19.60;99.90;;;;;;5017739;28;36628;-78
2022/07/07 00:58:10;;;;;;;2.08;1.13;;;19.70;99.90;;;;;;5014069;28;38970;-78
2022/07/07 01:00:36;;;;;;;4.60;1.30;;;19.60;99.90;;;;;;5014242;28;38505;-77
2022/07/07 01:03:02;;;;;;;3.72;1.60;;;19.60;99.90;;;;;;5027510;28;38861;-78
2022/07/07 01:05:30;;;;;;;4.57;1.10;;;19.60;99.90;;;;;;5005219;28;47438;-77
2022/07/07 01:07:58;;;;;;;2.15;1.17;;;19.60;99.90;;;;;;5001543;28;38922;-77
2022/07/07 01:10:24;;;;;;;3.03;1.05;;;19.60;99.90;;;;;;4989325;28;38447;-77
2022/07/07 01:12:50;;;;;;;2.72;1.15;;;19.50;99.90;;;;;;5008311;28;36386;-77
2022/07/07 01:15:16;;;;;;;5.53;1.50;;;19.50;99.90;;;;;;5009929;28;36408;-77
2022/07/07 01:17:42;;;;;;;3.85;1.20;;;19.50;99.90;;;;;;4997733;28;39239;-77
2022/07/07 01:20:10;;;;;;;4.90;1.10;;;19.40;99.90;;;;;;4987878;28;37648;-77
2022/07/07 01:22:38;;;;;;;2.15;1.30;;;19.50;99.90;;;;;;5001582;28;37964;-77
2022/07/07 01:25:05;;;;;;;3.70;1.27;;;19.50;99.90;;;;;;4982539;28;35983;-77
2022/07/07 01:27:32;;;;;;;5.72;1.52;;;19.40;99.90;;;;;;4986134;28;37943;-77
2022/07/07 01:29:58;;;;;;;5.35;2.30;;;19.40;99.90;;;;;;4985278;28;37277;-78
2022/07/07 01:32:26;;;;;;;2.78;1.40;;;19.30;99.90;;;;;;4992686;28;38205;-79
2022/07/07 01:34:52;;;;;;;7.22;1.50;;;19.20;99.90;;;;;;4994269;28;36274;-78
2022/07/07 01:37:20;;;;;;;4.43;1.90;;;19.10;99.90;;;;;;4998411;28;37948;-78
2022/07/07 01:39:48;;;;;;;1.95;1.20;;;19.00;99.90;;;;;;4994442;28;38647;-78
2022/07/07 01:42:14;;;;;;;3.97;1.20;;;18.90;99.90;;;;;;5004370;28;37076;-78
2022/07/07 01:44:42;;;;;;;2.05;1.23;;;18.90;99.90;;;;;;5000568;28;39575;-78
2022/07/07 01:47:09;;;;;;;7.22;1.30;;;18.80;99.90;;;;;;4997037;28;39068;-78
2022/07/07 01:49:36;;;;;;;1.77;1.27;;;18.80;99.90;;;;;;5001193;28;39101;-78
2022/07/07 01:52:07;;;;;;;6.22;1.08;;;18.70;99.90;;;;;;4988244;28;39478;-77
2022/07/07 01:54:34;;;;;;;3.78;1.20;;;18.70;99.90;;;;;;4996370;28;35881;-77
2022/07/07 01:57:01;;;;;;;5.93;1.20;;;18.70;99.90;;;;;;4992219;28;39626;-79
2022/07/07 01:59:28;;;;;;;3.17;1.02;;;18.70;99.90;;;;;;4988432;28;48473;-78
2022/07/07 02:01:54;;;;;;;4.20;1.00;;;18.60;99.90;;;;;;4988310;28;39380;-79
2022/07/07 02:04:20;;;;;;;9.65;1.10;;;18.60;99.90;;;;;;4993851;28;38144;-78
2022/07/07 02:06:47;;;;;;;5.93;1.10;;;18.60;99.90;;;;;;4993537;28;38745;-79
2022/07/07 02:09:13;;;;;;;2.60;1.20;;;18.50;99.90;;;;;;4989527;28;39089;-78
2022/07/07 02:11:39;;;;;;;4.13;1.40;;;18.30;99.90;;;;;;4993564;28;39553;-78
2022/07/07 02:14:06;;;;;;;5.78;1.60;;;18.20;99.90;;;;;;4993391;28;39006;-78
2022/07/07 02:16:33;;;;;;;3.67;1.27;;;18.20;99.90;;;;;;4998396;28;37886;-78
2022/07/07 02:19:07;;;;;;;2.95;1.30;;;18.10;99.90;;;;;;4986309;28;39447;-78
2022/07/07 02:21:34;;;;;;;2.95;1.30;;;18.10;99.90;;;;;;4992335;28;49062;-78
2022/07/07 02:24:01;;;;;;;6.25;1.70;;;18.10;99.90;;;;;;4994135;28;34970;-79
2022/07/07 02:26:27;;;;;;;4.93;1.55;;;18.20;99.90;;;;;;5005779;28;47046;-78
2022/07/07 02:28:53;;;;;;;3.55;1.50;;;18.30;99.90;;;;;;4991726;28;39005;-79
2022/07/07 02:31:20;;;;;;;4.93;1.40;;;18.30;99.90;;;;;;4989671;28;36768;-79
2022/07/07 02:33:46;;;;;;;5.78;1.63;;;18.30;99.90;;;;;;4998801;28;34868;-79
2022/07/07 02:36:12;;;;;;;4.35;1.50;;;18.40;99.90;;;;;;5001454;28;38743;-78
2022/07/07 02:38:39;;;;;;;6.93;1.42;;;18.30;99.90;;;;;;4990151;28;37316;-77
2022/07/07 02:41:06;;;;;;;4.95;1.48;;;18.30;99.90;;;;;;5000911;28;39207;-78
2022/07/07 02:43:32;;;;;;;5.28;1.95;;;18.20;99.90;;;;;;5012743;28;37753;-78
2022/07/07 02:45:58;;;;;;;7.22;2.08;;;18.20;99.90;;;;;;5023142;28;38232;-78
2022/07/07 02:48:25;;;;;;;3.63;1.50;;;18.10;99.90;;;;;;5019814;28;39031;-78
2022/07/07 02:50:52;;;;;;;5.63;1.85;;;18.00;99.90;;;;;;5017192;28;38713;-78
2022/07/07 02:53:20;;;;;;;6.45;2.80;;;18.00;99.90;;;;;;5017163;28;38854;-78
2022/07/07 02:55:46;;;;;;;9.27;3.05;;;18.10;99.90;;;;;;5018167;28;39263;-78
2022/07/07 02:58:19;;;;;;;4.38;1.83;;;18.10;99.90;;;;;;5011720;28;39098;-78
2022/07/07 03:00:47;;;;;;;6.55;1.75;;;18.20;99.90;;;;;;5011856;28;38736;-78
2022/07/07 03:03:13;;;;;;;8.68;2.05;;;18.20;99.90;;;;;;5013389;28;38450;-79
2022/07/07 03:05:40;;;;;;;7.47;1.70;;;18.10;99.90;;;;;;5011606;28;40373;-79
2022/07/07 03:08:06;;;;;;;8.65;1.60;;;18.20;99.90;;;;;;5009559;28;38385;-79
2022/07/07 03:10:33;;;;;;;5.72;1.10;;;18.10;99.90;;;;;;5015332;28;36862;-78
2022/07/07 03:12:59;;;;;;;7.88;1.10;;;17.90;99.90;;;;;;5009961;28;36139;-78
2022/07/07 03:15:25;;;;;;;8.20;1.67;;;17.60;99.90;;;;;;5012810;28;37837;-79
2022/07/07 03:17:52;;;;;;;5.97;1.35;;;17.40;99.90;;;;;;5015925;28;38509;-79
2022/07/07 03:20:18;;;;;;;7.05;1.52;;;17.20;99.90;;;;;;5008990;28;39850;-79
2022/07/07 03:22:44;;;;;;;5.13;1.77;;;17.00;99.90;;;;;;5012718;28;36345;-79
2022/07/07 03:25:11;;;;;;;7.50;1.58;;;17.00;99.90;;;;;;5004165;28;38829;-78
2022/07/07 03:27:38;;;;;;;7.53;1.65;;;16.90;99.90;;;;;;5009985;28;38552;-78
2022/07/07 03:30:05;;;;;;;6.47;1.85;;;16.90;99.90;;;;;;5015151;28;38888;-79
2022/07/07 03:32:32;;;;;;;6.85;1.45;;;16.80;99.90;;;;;;5021256;28;40048;-78
2022/07/07 03:34:58;;;;;;;5.20;1.40;;;16.70;99.90;;;;;;5015013;28;38983;-79
2022/07/07 03:37:24;;;;;;;11.30;1.98;;;16.60;99.90;;;;;;5017604;28;38305;-78
2022/07/07 03:39:50;;;;;;;10.43;2.13;;;16.50;99.90;;;;;;5016080;28;38140;-78
2022/07/07 03:42:17;;;;;;;7.78;1.90;;;16.50;99.90;;;;;;5045772;28;38537;-78
2022/07/07 03:44:43;;;;;;;7.85;1.70;;;16.40;99.90;;;;;;5020645;28;40671;-78
2022/07/07 03:47:11;;;;;;;7.63;1.58;;;16.40;99.90;;;;;;5021927;28;38441;-78
2022/07/07 03:49:38;;;;;;;8.85;1.67;;;16.30;99.90;;;;;;5017166;28;38104;-78
2022/07/07 03:52:05;;;;;;;8.50;1.52;;;16.30;99.90;;;;;;5018265;28;35157;-78
2022/07/07 03:54:31;;;;;;;9.65;1.80;;;16.40;99.90;;;;;;5022889;28;38805;-78
2022/07/07 03:56:57;;;;;;;7.90;1.90;;;16.40;99.90;;;;;;5017913;28;39324;-78
2022/07/07 03:59:23;;;;;;;7.85;1.52;;;16.40;99.90;;;;;;5016612;28;38596;-78
2022/07/07 04:01:49;;;;;;;12.02;2.00;;;16.40;99.90;;;;;;5027941;28;38974;-79
2022/07/07 04:04:16;;;;;;;11.95;1.95;;;16.40;99.90;;;;;;5016735;28;37690;-77
2022/07/07 04:06:42;;;;;;;9.55;1.90;;;16.40;99.90;;;;;;5020518;28;38617;-79
2022/07/07 04:09:09;;;;;;;9.82;2.13;;;16.40;99.90;;;;;;5012881;28;38365;-78
2022/07/07 04:11:35;;;;;;;8.35;1.50;;;16.50;99.90;;;;;;5022655;28;38255;-78
2022/07/07 04:14:02;;;;;;;8.57;1.77;;;16.40;99.90;;;;;;5020107;28;40250;-78
2022/07/07 04:16:29;;;;;;;9.32;1.50;;;16.50;99.90;;;;;;5020167;28;39336;-78
2022/07/07 04:18:56;;;;;;;12.05;1.80;;;16.50;99.90;;;;;;5017006;28;38847;-77
2022/07/07 04:21:22;;;;;;;11.75;2.35;;;16.50;99.90;;;;;;5020428;28;37958;-78
2022/07/07 04:23:48;;;;;;;11.80;1.95;;;16.50;99.90;;;;;;5015273;28;38761;-78
2022/07/07 04:26:14;;;;;;;8.55;1.63;;;16.50;99.90;;;;;;5018587;28;38156;-78
2022/07/07 04:28:40;;;;;;;8.85;1.80;;;16.60;99.90;;;;;;5019418;28;38644;-79
2022/07/07 04:31:06;;;;;;;5.28;1.33;;;16.60;99.90;;;;;;5015526;28;36768;-78
2022/07/07 04:33:32;;;;;;;11.18;1.70;;;16.60;99.90;;;;;;5013662;28;39804;-78
2022/07/07 04:35:58;;;;;;;7.65;1.10;;;16.60;99.90;;;;;;5054785;28;39725;-78
2022/07/07 04:38:24;;;;;;;10.98;1.90;;;16.60;99.90;;;;;;5014535;28;37266;-78
2022/07/07 04:40:50;;;;;;;5.88;1.00;;;16.70;99.90;;;;;;5032205;28;38093;-79
2022/07/07 04:43:17;;;;;;;8.60;1.30;;;16.60;99.90;;;;;;5020967;28;39455;-78
2022/07/07 04:45:43;;;;;;;8.52;1.80;;;16.70;99.90;;;;;;5050743;28;40058;-77
2022/07/07 04:48:10;;;;;;;9.80;1.65;;;16.70;99.90;;;;;;5018702;28;20046;-78
2022/07/07 04:50:36;;;;;;;12.57;1.48;;;16.70;99.90;;;;;;5021964;28;37698;-78
2022/07/07 04:53:02;;;;;;;8.57;1.55;;;16.70;99.90;;;;;;5028755;28;39832;-78
2022/07/07 04:55:28;;;;;;;11.80;2.00;;;16.70;99.90;;;;;;5016343;28;47207;-78
2022/07/07 04:57:54;;;;;;;15.23;2.72;;;16.60;99.90;;;;;;5047701;28;38754;-78
2022/07/07 05:00:21;;;;;;;8.68;1.52;;;16.60;99.90;;;;;;5016813;28;38955;-78
2022/07/07 05:02:47;;;;;;;8.93;1.70;;;16.60;99.90;;;;;;5018387;28;38824;-78
2022/07/07 05:05:13;;;;;;;12.95;1.90;;;16.60;99.90;;;;;;5014452;28;39263;-78
2022/07/07 05:07:39;;;;;;;11.48;2.08;;;16.60;99.90;;;;;;4989757;28;39676;-78
2022/07/07 05:10:06;;;;;;;13.63;2.30;;;16.70;99.90;;;;;;5001663;28;38368;-79
2022/07/07 05:12:32;;;;;;;10.55;1.65;;;16.70;99.90;;;;;;5002734;28;39363;-78
2022/07/07 05:14:58;;;;;;;12.57;2.10;;;16.70;99.90;;;;;;5031852;28;35976;-79
2022/07/07 05:17:24;;;;;;;8.20;1.88;;;16.70;99.90;;;;;;4993446;28;38345;-78
2022/07/07 05:19:50;;;;;;;14.48;2.05;;;16.80;99.90;;;;;;4995079;28;39292;-79
2022/07/07 05:22:17;;;;;;;12.77;2.22;;;16.80;99.90;;;;;;4999395;28;40216;-79
2022/07/07 05:24:43;;;;;;;9.55;2.30;;;16.80;99.90;;;;;;4986880;28;38609;-78
2022/07/07 05:27:09;;;;;;;10.25;1.73;;;16.80;99.90;;;;;;4990820;28;39645;-79
2022/07/07 05:29:35;;;;;;;15.25;2.33;;;16.80;99.90;;;;;;5008147;28;37274;-79
2022/07/07 05:32:01;;;;;;;17.98;2.30;;;16.80;99.90;;;;;;5006334;28;38140;-78
2022/07/07 05:34:27;;;;;;;13.23;2.40;;;16.80;99.90;;;;;;5011230;28;39888;-79
2022/07/07 05:36:53;;;;;;;10.75;2.10;;;16.80;99.90;;;;;;5014537;28;38953;-79
2022/07/07 05:39:20;;;;;;;11.10;2.35;;;16.90;99.90;;;;;;5009936;28;38320;-78
2022/07/07 05:41:46;;;;;;;9.15;1.98;;;16.90;99.90;;;;;;5009143;28;40725;-78
2022/07/07 05:44:12;;;;;;;16.27;2.30;;;16.90;99.90;;;;;;5009127;28;39285;-78
2022/07/07 05:46:38;;;;;;;16.00;2.33;;;17.00;99.90;;;;;;5004184;28;38757;-78
2022/07/07 05:49:04;;;;;;;12.27;2.15;;;17.00;99.90;;;;;;5007197;28;37552;-78
2022/07/07 05:51:30;;;;;;;10.45;2.33;;;17.00;99.90;;;;;;5019607;28;39365;-78
2022/07/07 05:53:57;;;;;;;15.80;2.38;;;17.10;99.90;;;;;;5005760;28;38879;-78
2022/07/07 05:56:23;;;;;;;11.02;2.15;;;17.20;99.90;;;;;;5001709;28;38672;-79
2022/07/07 05:58:49;;;;;;;12.10;2.50;;;17.30;99.90;;;;;;5011336;28;38206;-78
2022/07/07 06:01:15;;;;;;;13.05;2.10;;;17.30;99.90;;;;;;5008005;28;39856;-79
2022/07/07 06:03:41;;;;;;;18.30;2.72;;;17.30;99.90;;;;;;5007174;28;39907;-78
2022/07/07 06:06:07;;;;;;;11.13;1.85;;;17.40;99.90;;;;;;5021780;28;37243;-78
2022/07/07 06:08:33;;;;;;;10.98;2.13;;;17.70;99.90;;;;;;5008564;28;36981;-78
2022/07/07 06:10:59;;;;;;;9.00;2.03;;;17.70;99.90;;;;;;5001888;28;37856;-79
2022/07/07 06:13:25;;;;;;;13.10;2.67;;;17.70;99.90;;;;;;4978720;28;36491;-78
2022/07/07 06:15:51;;;;;;;9.77;2.20;;;17.60;99.90;;;;;;4997984;28;38695;-79
2022/07/07 06:18:17;;;;;;;12.50;2.40;;;17.50;99.90;;;;;;5006058;28;37006;-79
2022/07/07 06:20:44;;;;;;;9.55;1.90;;;17.20;99.90;;;;;;4979919;28;38322;-78
2022/07/07 06:23:10;;;;;;;8.52;1.60;;;17.10;99.90;;;;;;4984065;28;38319;-78
2022/07/07 06:25:36;;;;;;;9.57;1.60;;;17.00;99.90;;;;;;4983411;28;39856;-78
2022/07/07 06:28:03;;;;;;;7.50;1.40;;;16.80;99.90;;;;;;4989166;28;39345;-79
2022/07/07 06:30:29;;;;;;;6.93;1.58;;;16.70;99.90;;;;;;4997448;28;39299;-80
2022/07/07 06:32:56;;;;;;;5.30;1.30;;;16.60;99.90;;;;;;4991326;28;40647;-79
2022/07/07 06:35:24;;;;;;;13.27;2.03;;;16.70;99.90;;;;;;4987524;28;37761;-80
2022/07/07 06:37:52;;;;;;;9.63;1.90;;;16.70;99.90;;;;;;4986579;28;37981;-79
2022/07/07 06:40:19;;;;;;;8.25;1.60;;;16.50;99.90;;;;;;4985321;28;39397;-79
2022/07/07 06:42:45;;;;;;;9.10;2.20;;;16.40;99.90;;;;;;5012417;28;37467;-79
2022/07/07 06:45:12;;;;;;;9.15;1.73;;;16.40;99.90;;;;;;5022928;28;38903;-79
2022/07/07 06:47:38;;;;;;;8.30;1.98;;;16.40;99.90;;;;;;5013422;28;36827;-79
2022/07/07 06:50:05;;;;;;;11.98;2.08;;;16.40;99.90;;;;;;5012431;28;39836;-80
2022/07/07 06:52:31;;;;;;;7.00;1.77;;;16.50;99.90;;;;;;5043164;28;37887;-79
2022/07/07 06:54:58;;;;;;;7.38;1.58;;;16.70;99.90;;;;;;5010630;28;38181;-79
2022/07/07 06:57:24;;;;;;;5.07;1.52;;;16.70;99.90;;;;;;5008557;28;37398;-79
2022/07/07 06:59:50;;;;;;;13.82;1.73;;;17.20;99.90;;;;;;5029562;28;38077;-79
2022/07/07 07:02:16;;;;;;;6.90;1.23;;;18.00;99.90;;;;;;5004166;28;36535;-78
2022/07/07 07:04:42;;;;;;;6.15;1.33;;;18.60;99.90;;;;;;5012022;28;36298;-80
2022/07/07 07:07:08;;;;;;;8.00;1.40;;;18.90;99.90;;;;;;5038358;28;36357;-77
2022/07/07 07:09:34;;;;;;;7.38;1.58;;;18.80;99.90;;;;;;5019113;28;39156;-77
2022/07/07 07:12:00;;;;;;;6.85;1.20;;;18.30;99.90;;;;;;5017035;28;37790;-77
2022/07/07 07:14:26;;;;;;;6.78;1.67;;;17.90;99.90;;;;;;5017844;28;46369;-80
2022/07/07 07:16:53;;;;;;;7.93;1.08;;;18.00;99.90;;;;;;5024313;28;37063;-79
2022/07/07 07:19:19;;;;;;;11.68;1.45;;;17.80;99.90;;;;;;5015348;28;39147;-78
2022/07/07 07:21:45;;;;;;;10.18;1.48;;;17.60;99.90;;;;;;5010827;28;37556;-78
2022/07/07 07:24:12;;;;;;;6.75;1.48;;;18.20;99.90;;;;;;5015504;28;38518;-78
2022/07/07 07:26:39;;;;;;;8.50;1.55;;;18.60;99.90;;;;;;5014028;28;37318;-77
2022/07/07 07:29:05;;;;;;;10.65;2.35;;;18.50;99.90;;;;;;5014862;28;36820;-77
2022/07/07 07:31:31;;;;;;;10.45;1.55;;;18.20;99.90;;;;;;5018301;28;39295;-78
2022/07/07 07:33:57;;;;;;;6.32;1.30;;;18.10;99.90;;;;;;5046246;28;39358;-79
2022/07/07 07:36:23;;;;;;;7.88;1.67;;;17.70;99.90;;;;;;5021743;28;37220;-79
2022/07/07 07:38:50;;;;;;;8.60;1.23;;;17.60;99.90;;;;;;5018316;28;40686;-79
2022/07/07 07:41:18;;;;;;;5.70;1.33;;;17.40;99.90;;;;;;5017809;28;38557;-79
2022/07/07 07:43:44;;;;;;;6.05;1.30;;;17.30;99.90;;;;;;5015850;28;37728;-77
2022/07/07 07:46:10;;;;;;;4.00;1.00;;;17.40;99.90;;;;;;5014389;28;35727;-78
2022/07/07 07:48:37;;;;;;;3.53;1.05;;;17.50;99.90;;;;;;5014043;28;38756;-78
2022/07/07 07:51:03;;;;;;;5.65;1.10;;;17.70;99.90;;;;;;5030660;28;39394;-78
2022/07/07 07:53:30;;;;;;;4.22;1.13;;;17.90;99.90;;;;;;5025718;28;37020;-78
2022/07/07 07:55:56;;;;;;;10.27;1.10;;;18.00;99.90;;;;;;5016175;28;38478;-77
2022/07/07 07:58:22;;;;;;;6.35;1.10;;;18.10;99.90;;;;;;5047045;28;37747;-78
2022/07/07 08:00:48;;;;;;;7.57;1.10;;;18.20;99.90;;;;;;5018838;28;39864;-77
2022/07/07 08:03:15;;;;;;;3.78;1.38;;;18.50;99.90;;;;;;5019726;28;38790;-77
2022/07/07 08:05:42;;;;;;;6.90;1.30;;;18.70;99.90;;;;;;5015534;28;37009;-78
2022/07/07 08:08:12;;;;;;;7.05;1.10;;;18.40;99.90;;;;;;5016485;28;37957;-78
2022/07/07 08:10:38;;;;;;;5.72;1.25;;;18.30;99.90;;;;;;5017634;28;39152;-78
2022/07/07 08:13:05;;;;;;;6.45;1.58;;;18.00;99.90;;;;;;5051373;28;38134;-77
2022/07/07 08:15:34;;;;;;;8.00;1.17;;;17.90;99.90;;;;;;5050775;28;37973;-78
2022/07/07 08:18:03;;;;;;;5.70;1.25;;;17.80;99.90;;;;;;5012052;28;39523;-77
2022/07/07 08:20:29;;;;;;;2.78;0.63;;;17.80;99.90;;;;;;5017162;28;37970;-76
2022/07/07 08:22:57;;;;;;;1.67;0.45;;;17.60;99.90;;;;;;5015991;28;37455;-77
2022/07/07 08:25:23;;;;;;;1.52;0.65;;;17.30;99.90;;;;;;5021056;28;37358;-78
2022/07/07 08:27:49;;;;;;;6.72;0.70;;;17.10;99.90;;;;;;5034385;28;38665;-78
2022/07/07 08:30:17;;;;;;;3.33;0.50;;;17.20;99.90;;;;;;5024397;28;38183;-78
2022/07/07 08:32:46;;;;;;;5.10;0.90;;;17.60;99.90;;;;;;5022794;28;38655;-78
2022/07/07 08:35:13;;;;;;;4.72;0.65;;;18.20;99.90;;;;;;5015200;28;37939;-78
2022/07/07 08:37:41;;;;;;;4.50;0.98;;;18.70;99.90;;;;;;5020149;28;41099;-78
2022/07/07 08:40:09;;;;;;;4.10;0.85;;;19.00;99.90;;;;;;5018990;28;38856;-76
2022/07/07 08:42:36;;;;;;;10.13;1.45;;;19.30;99.90;;;;;;5057360;28;37432;-76
2022/07/07 08:45:03;;;;;;;7.05;1.45;;;18.80;99.90;;;;;;5016296;28;36307;-77
2022/07/07 08:47:29;;;;;;;8.65;1.33;;;18.60;99.90;;;;;;5012752;28;47179;-76
2022/07/07 08:49:55;;;;;;;5.90;1.13;;;18.40;99.90;;;;;;4994468;28;37786;-76
2022/07/07 08:52:22;;;;;;;7.38;1.10;;;18.10;99.90;;;;;;4988690;28;36507;-78
2022/07/07 08:54:49;;;;;;;5.70;0.93;;;17.40;99.90;;;;;;5009603;28;37220;-76
2022/07/07 08:57:16;;;;;;;2.55;0.55;;;17.20;99.90;;;;;;5015201;28;38633;-76
2022/07/07 08:59:43;;;;;;;7.75;1.45;;;17.20;99.90;;;;;;5049631;28;38678;-78
2022/07/07 09:02:10;;;;;;;5.80;0.90;;;17.50;99.90;;;;;;5019722;28;39965;-76
2022/07/07 09:04:36;;;;;;;8.63;1.77;;;17.90;99.90;;;;;;5017045;28;39416;-75
2022/07/07 09:07:13;;;;;;;5.05;1.13;;;18.20;99.90;;;;;;5027713;28;38009;-77
2022/07/07 09:10:06;;;;;;;6.15;1.45;;;18.30;99.90;;;;;;5002457;28;41728;-76
2022/07/07 09:12:32;;;;;;;;;;;18.30;99.90;;;;;;4988130;28;47570;-80
2022/07/07 09:15:03;;;;;;;11.48;1.15;;;18.20;99.90;;;;;;4994955;28;34551;-79
2022/07/07 09:17:32;;;;;;;11.65;1.50;;;18.00;99.90;;;;;;5016945;28;47279;-79
2022/07/07 09:20:06;;;;;;;4.10;1.05;;;17.80;99.90;;;;;;5003060;28;39178;-78
2022/07/07 09:22:42;;;;;;;6.25;1.35;;;17.60;99.90;;;;;;5042945;28;47455;-80
2022/07/07 09:25:08;;;;;;;14.98;1.73;;;17.50;99.90;;;;;;5010021;28;37183;-80
2022/07/07 09:27:52;;;;;;;9.25;1.40;;;17.30;99.90;;;;;;5014714;28;39387;-80
2022/07/07 09:30:46;;;;;;;12.05;1.50;;;17.40;99.90;;;;;;5008799;28;38918;-79
2022/07/07 09:33:26;;;;;;;10.63;1.67;;;17.50;99.90;;;;;;5005766;28;38257;-79
2022/07/07 09:38:40;;;;;;;8.68;1.58;;;17.50;99.90;;;;;;5019281;28;49397;-79
2022/07/07 09:41:15;;;;;;;5.35;1.33;;;17.40;99.90;;;;;;5016424;28;38540;-79
2022/07/07 09:43:47;;;;;;;9.70;1.63;;;17.50;99.90;;;;;;5026560;28;38776;-79
2022/07/07 09:46:24;;;;;;;8.75;1.70;;;17.60;99.90;;;;;;5033950;28;36929;-80
2022/07/07 09:49:00;;;;;;;10.15;1.90;;;17.80;99.90;;;;;;5020972;28;39853;-80
2022/07/07 09:51:33;;;;;;;8.98;1.52;;;17.80;99.90;;;;;;5012388;28;41062;-79
2022/07/07 09:54:10;;;;;;;8.85;1.35;;;17.80;99.90;;;;;;5012004;28;40007;-80
2022/07/07 09:56:37;;;;;;;10.77;1.70;;;17.70;99.90;;;;;;5006204;28;48706;-80
2022/07/07 09:59:12;;;;;;;9.70;1.80;;;17.70;99.90;;;;;;5012657;28;38782;-80
2022/07/07 10:01:40;;;;;;;11.57;1.95;;;17.70;99.90;;;;;;5009333;28;47635;-80
2022/07/07 10:04:10;;;;;;;14.20;2.10;;;17.60;99.90;;;;;;5013369;28;38835;-81
2022/07/07 10:06:38;;;;;;;9.60;1.90;;;17.60;99.90;;;;;;5015524;28;38266;-80
2022/07/07 10:09:20;;;;;;;8.35;1.90;;;17.60;99.90;;;;;;5019598;28;38499;-80
2022/07/07 10:11:50;;;;;;;8.52;2.15;;;17.80;99.90;;;;;;5022525;28;38209;-80
2022/07/07 10:14:19;;;;;;;6.03;1.35;;;17.90;99.90;;;;;;5011364;28;38328;-81
2022/07/07 10:16:48;;;;;;;6.78;1.50;;;18.20;99.90;;;;;;5017615;28;37473;-80
2022/07/07 10:19:18;;;;;;;4.35;1.00;;;18.40;99.90;;;;;;5014962;28;39859;-80
2022/07/07 10:21:47;;;;;;;8.80;1.17;;;18.30;99.90;;;;;;5013092;28;38913;-81
2022/07/07 10:24:16;;;;;;;7.72;1.40;;;18.10;99.90;;;;;;5030680;28;39448;-81
2022/07/07 10:26:57;;;;;;;4.50;1.30;;;17.80;99.90;;;;;;5019049;28;37381;-80
2022/07/07 10:29:49;;;;;;;8.00;1.05;;;17.80;99.90;;;;;;4997685;28;40684;-80
2022/07/07 10:32:16;;;;;;;8.52;1.80;;;18.00;99.90;;;;;;5001373;28;38221;-81
2022/07/07 10:34:54;;;;;;;5.88;1.20;;;18.20;99.90;;;;;;5010774;28;38280;-80
2022/07/07 10:37:21;;;;;;;6.05;1.67;;;18.50;99.90;;;;;;4999465;28;37163;-80
2022/07/07 10:39:50;;;;;;;12.00;2.05;;;18.80;99.90;;;;;;5030027;28;39637;-80
2022/07/07 10:42:16;;;;;;;8.10;1.63;;;18.70;99.90;;;;;;5028142;28;38833;-80
2022/07/07 10:44:48;;;;;;;9.73;2.13;;;18.30;99.90;;;;;;5032105;28;39028;-81
2022/07/07 10:47:17;;;;;;;10.10;1.48;;;17.90;99.90;;;;;;5003848;28;37227;-80
2022/07/07 10:49:45;;;;;;;5.57;1.10;;;17.50;99.90;;;;;;5003805;28;40117;-81
2022/07/07 10:52:14;;;;;;;4.95;1.00;;;17.50;99.90;;;;;;5011228;28;39467;-80
2022/07/07 10:54:43;;;;;;;7.82;1.25;;;17.80;99.90;;;;;;5008053;28;38919;-79
2022/07/07 10:57:13;;;;;;;5.15;0.93;;;18.20;99.90;;;;;;4993447;28;36928;-80
2022/07/07 11:00:08;;;;;;;3.97;0.63;;;18.50;99.90;;;;;;5002672;28;39733;-80
2022/07/07 11:02:42;;;;;;;6.70;1.20;;;19.10;99.90;;;;;;5015475;28;48626;-79
2022/07/07 11:05:14;;;;;;;5.63;1.33;;;19.80;99.90;;;;;;4996372;28;37094;-79
2022/07/07 11:07:55;;;;;;;7.18;1.30;;;19.70;99.90;;;;;;5000302;28;38586;-78
2022/07/07 11:10:44;;;;;;;4.20;1.52;;;19.40;99.90;;;;;;5015497;28;39733;-79
2022/07/07 11:13:31;;;;;;;10.00;1.20;;;19.30;99.90;;;;;;4995071;28;39374;-79
2022/07/07 11:16:11;;;;;;;4.05;1.00;;;19.10;99.90;;;;;;5006828;28;39317;-79
2022/07/07 11:18:37;;;;;;;6.82;1.85;;;18.80;99.90;;;;;;5011060;28;48717;-79
2022/07/07 11:21:06;;;;;;;10.27;1.83;;;18.40;99.90;;;;;;5046035;28;39138;-80
2022/07/07 11:23:44;;;;;;;4.78;1.10;;;18.10;99.90;;;;;;5010032;28;39830;-81
2022/07/07 11:26:13;;;;;;;6.07;1.33;;;18.00;99.90;;;;;;5001827;28;37852;-78
2022/07/07 11:28:40;;;;;;;5.35;1.50;;;18.10;99.90;;;;;;5036662;28;38580;-78
2022/07/07 11:31:08;;;;;;;6.25;1.42;;;18.10;99.90;;;;;;5016021;28;38774;-80
2022/07/07 11:33:36;;;;;;;6.43;1.30;;;18.30;99.90;;;;;;5034377;28;38421;-78
2022/07/07 11:36:13;;;;;;;7.85;1.98;;;18.40;99.90;;;;;;5013532;28;38835;-78
2022/07/07 11:38:40;;;;;;;6.45;1.42;;;18.00;99.90;;;;;;5054227;28;37757;-79
2022/07/07 11:41:07;;;;;;;8.05;1.50;;;17.80;99.90;;;;;;5022219;28;39568;-79
2022/07/07 11:43:33;;;;;;;5.18;1.15;;;17.80;99.90;;;;;;5052966;28;37433;-79
2022/07/07 11:45:59;;;;;;;6.57;1.27;;;18.00;99.90;;;;;;5017873;28;38296;-79
2022/07/07 11:48:33;;;;;;;5.57;1.17;;;18.40;99.90;;;;;;5038500;28;38647;-78
2022/07/07 11:51:00;;;;;;;7.45;1.52;;;18.70;99.90;;;;;;5013217;28;37855;-78
2022/07/07 11:53:26;;;;;;;5.00;1.33;;;18.80;99.90;;;;;;5009331;28;37828;-78
2022/07/07 11:55:52;;;;;;;7.13;1.50;;;19.10;99.90;;;;;;5009570;28;39083;-78
2022/07/07 11:58:18;;;;;;;5.53;1.95;;;19.10;99.90;;;;;;5042115;28;37573;-79
2022/07/07 12:00:44;;;;;;;7.55;1.60;;;18.90;99.90;;;;;;5016814;28;38220;-78
2022/07/07 12:03:10;;;;;;;7.78;1.80;;;18.50;99.90;;;;;;5016014;28;39786;-77
2022/07/07 12:05:43;;;;;;;9.55;2.35;;;18.30;99.90;;;;;;5013182;28;39172;-77
2022/07/07 12:08:12;;;;;;;9.77;2.10;;;18.40;99.90;;;;;;5011918;28;38831;-78
2022/07/07 12:10:58;;;;;;;10.77;2.50;;;18.40;99.90;;;;;;5013407;28;39834;-77
2022/07/07 12:13:26;;;;;;;10.13;1.95;;;18.70;99.90;;;;;;5014157;28;37527;-78
2022/07/07 12:15:53;;;;;;;11.20;2.20;;;18.80;99.90;;;;;;5013401;28;38935;-77
2022/07/07 12:18:34;;;;;;;7.40;2.10;;;18.70;99.90;;;;;;5027800;28;38049;-78
2022/07/07 12:21:03;;;;;;;16.23;2.97;;;18.70;99.90;;;;;;5042431;28;39537;-79
2022/07/07 12:23:29;;;;;;;12.27;2.42;;;18.50;99.90;;;;;;4992586;28;47073;-80
2022/07/07 12:26:11;;;;;;;13.65;2.22;;;18.50;99.90;;;;;;4997777;28;39321;-80
2022/07/07 12:28:38;;;;;;;11.80;2.40;;;18.70;99.90;;;;;;5016148;28;49042;-80
2022/07/07 12:31:05;;;;;;;9.07;1.90;;;18.70;99.90;;;;;;5008427;28;38817;-79
2022/07/07 12:33:34;;;;;;;13.85;2.17;;;18.60;99.90;;;;;;5028938;28;39477;-78
2022/07/07 12:36:11;;;;;;;9.90;2.15;;;18.50;99.90;;;;;;5021344;28;38955;-78
2022/07/07 12:38:41;;;;;;;12.32;2.63;;;18.40;99.90;;;;;;5046374;28;47255;-78
2022/07/07 12:41:08;;;;;;;13.40;2.30;;;18.30;99.90;;;;;;5043859;28;39626;-78
2022/07/07 12:43:36;;;;;;;10.93;1.90;;;18.20;99.90;;;;;;4993381;28;38765;-80
2022/07/07 12:46:10;;;;;;;11.70;1.73;;;18.20;99.90;;;;;;5001726;28;39656;-79
2022/07/07 12:48:43;;;;;;;7.80;1.38;;;18.30;99.90;;;;;;5008703;28;38347;-79
2022/07/07 12:51:09;;;;;;;7.97;1.65;;;18.50;99.90;;;;;;5006921;28;37432;-79
2022/07/07 12:53:37;;;;;;;14.50;2.00;;;18.70;99.90;;;;;;5001640;28;39927;-78